Irvine, Florida
Current Conditions -  °F | °C
As of 7:50 AM on Saturday 20 Dec 2014 (Local Time) from KOCF Reporting Station
Few Clouds Few Clouds  
Wind Chill:   Ceiling: Unl
Heat Index:   Visibility: 10mi
Dew Point:   Wind: 0mph
Humidity: 93%   Direction: NA
Pressure: 30.11"   Gusts: NA
Location:  29.3919°N, 82.2811°W
Report Text: KOCF 201250Z 00000KT 10SM FEW021 09/08 A3011
Loading
Personal Weather Stations






























Interactive Weather Map New forecast layout! Learn more

10-Day Weather Forecast

Advertisements
Track Severe Weather on mobile